KFME/FME METAR and TAF weather

Enter ICAO airport designator
Station Type Date Time Source
KFME METAR 2022/06/29 00:39 UTC NOAA

KFME 290039Z AUTO 00000KT 10SM CLR 18/16 A3021 RMK AO1


Station Type Date Time Source
KFME Decoded METAR 2022/06/29 00:39 UTC NOAA

Fort Meade / Tipton, MD, United States (KFME) 39-05N 076-46W
Jun 28, 2022 - 08:39 PM EDT / 2022.06.29 0039 UTC
Wind: Calm:0
Visibility: 10 mile(s):0
Sky conditions: clear
Temperature: 64 F (18 C)
Dew Point: 60 F (16 C)
Relative Humidity: 88%
Pressure (altimeter): 30.21 in. Hg (1023 hPa)
ob: KFME 290039Z AUTO 00000KT 10SM CLR 18/16 A3021 RMK AO1
cycle: 0

Station Type Date Time Source
KFME TAF UTC NOAA

Error!

Example: see airport list